Time;durP1;ratioP1;P1;durP2;ratioP2;P2;SDS_P1;SDS_P2;PMS_P1;PMS_P2;Temp;Humidity;BMP_temperature;BMP_pressure;BME280_temperature;BME280_humidity;BME280_pressure;Samples;Min_cycle;Max_cycle;Signal;HPM_P1;HPM_P2
2023/07/17 00:00:22;;;;;;;1999.90;999.90;;;;;;;21.97;100.00;94395.59;5087442;28;20208;-64
2023/07/17 00:02:47;;;;;;;1999.90;999.90;;;;;;;21.89;100.00;94369.53;5088073;28;20177;-63
2023/07/17 00:05:12;;;;;;;1999.90;999.90;;;;;;;21.84;100.00;94345.28;5087800;28;20179;-64
2023/07/17 00:07:41;;;;;;;1999.90;999.90;;;;;;;21.84;100.00;94344.50;5087521;28;20180;-64
2023/07/17 00:10:08;;;;;;;1999.90;999.90;;;;;;;21.83;100.00;94327.09;5087392;28;20181;-65
2023/07/17 00:12:34;;;;;;;1999.90;999.90;;;;;;;21.87;100.00;94294.22;5087844;28;20180;-65
2023/07/17 00:14:59;;;;;;;1999.90;999.90;;;;;;;21.90;100.00;94276.53;5087316;28;20173;-64
2023/07/17 00:17:25;;;;;;;1999.90;999.90;;;;;;;21.89;100.00;94263.13;5087334;28;20246;-65
2023/07/17 00:19:55;;;;;;;1999.90;999.90;;;;;;;21.90;100.00;94254.28;5087642;28;20231;-64
2023/07/17 00:22:21;;;;;;;1999.90;999.90;;;;;;;21.88;100.00;94256.03;5087713;28;20205;-65
2023/07/17 00:24:46;;;;;;;1999.90;999.90;;;;;;;21.91;100.00;94244.69;5087631;28;20174;-65
2023/07/17 00:27:12;;;;;;;1999.90;999.90;;;;;;;21.91;100.00;94238.34;5087109;28;20180;-65
2023/07/17 00:29:37;;;;;;;1999.90;999.90;;;;;;;21.93;100.00;94241.41;5087103;28;20197;-65
2023/07/17 00:32:02;;;;;;;1999.90;999.90;;;;;;;22.03;100.00;94234.31;5087459;28;20177;-65
2023/07/17 00:34:28;;;;;;;1999.90;999.90;;;;;;;22.07;100.00;94227.22;5087398;28;20173;-65
2023/07/17 00:36:53;;;;;;;1999.90;999.90;;;;;;;22.03;100.00;94226.72;5086921;28;20212;-65
2023/07/17 00:39:19;;;;;;;1999.90;999.90;;;;;;;21.99;100.00;94209.53;5086689;28;20205;-65
2023/07/17 00:41:45;;;;;;;1999.90;999.90;;;;;;;22.02;100.00;94182.75;5086638;28;20177;-66
2023/07/17 00:44:10;;;;;;;1999.90;999.90;;;;;;;21.82;100.00;94167.06;5086831;28;20173;-63
2023/07/17 00:46:36;;;;;;;1999.90;999.90;;;;;;;21.62;100.00;94160.97;5087091;28;20262;-62
2023/07/17 00:49:03;;;;;;;1999.90;999.90;;;;;;;21.50;100.00;94149.09;5087255;28;20181;-62
2023/07/17 00:51:32;;;;;;;1999.90;999.90;;;;;;;21.46;100.00;94131.91;5086677;28;20173;-61
2023/07/17 00:53:59;;;;;;;1999.90;999.90;;;;;;;21.50;100.00;94099.09;5086664;28;20221;-61
2023/07/17 00:56:27;;;;;;;1999.90;999.90;;;;;;;21.36;100.00;94071.53;5086618;28;20173;-61
2023/07/17 00:58:53;;;;;;;1999.90;999.90;;;;;;;21.28;100.00;94043.53;5086421;28;20229;-61
2023/07/17 01:01:18;;;;;;;1999.90;999.90;;;;;;;21.26;100.00;94029.38;5086838;28;20173;-61
2023/07/17 01:03:44;;;;;;;1999.90;999.90;;;;;;;21.19;100.00;93984.69;5086052;28;20236;-61
2023/07/17 01:06:09;;;;;;;1999.90;999.90;;;;;;;21.07;100.00;93839.56;5086373;28;20173;-61
2023/07/17 01:08:34;;;;;;;1999.90;999.90;;;;;;;21.13;100.00;93809.72;5086382;28;20197;-61
2023/07/17 01:11:00;;;;;;;1999.90;999.90;;;;;;;21.10;100.00;93783.00;5086309;28;20176;-61
2023/07/17 01:13:25;;;;;;;1999.90;999.90;;;;;;;21.05;100.00;93764.34;5086577;28;20169;-61
2023/07/17 01:15:51;;;;;;;1999.90;999.90;;;;;;;20.92;100.00;93747.50;5086259;28;20172;-60
2023/07/17 01:18:16;;;;;;;1999.90;999.90;;;;;;;20.92;100.00;93736.38;5086971;28;20175;-61
2023/07/17 01:20:42;;;;;;;1999.90;999.90;;;;;;;20.85;100.00;93728.56;5086336;28;20243;-61
2023/07/17 01:23:07;;;;;;;1999.90;999.90;;;;;;;20.88;100.00;93710.88;5086054;28;20192;-62
2023/07/17 01:25:33;;;;;;;1999.90;999.90;;;;;;;20.76;100.00;93697.56;5086109;28;20165;-61
2023/07/17 01:27:59;;;;;;;1999.90;999.90;;;;;;;20.80;100.00;93698.78;5086561;28;20176;-61
2023/07/17 01:30:24;;;;;;;1999.90;999.90;;;;;;;20.85;100.00;93689.69;5086477;28;20211;-61
2023/07/17 01:32:50;;;;;;;1999.90;999.90;;;;;;;20.88;100.00;93699.78;5085915;28;20181;-61
2023/07/17 01:35:15;;;;;;;1999.90;999.90;;;;;;;20.94;100.00;93700.53;5086290;28;20172;-61
2023/07/17 01:37:42;;;;;;;1999.90;999.90;;;;;;;20.98;100.00;93698.22;5085863;28;20270;-61
2023/07/17 01:40:09;;;;;;;1999.90;999.90;;;;;;;21.03;100.00;93693.94;5085586;28;20197;-62
2023/07/17 01:42:34;;;;;;;1999.90;999.90;;;;;;;21.00;100.00;93684.59;5086184;28;20166;-62
2023/07/17 01:45:00;;;;;;;1999.90;999.90;;;;;;;21.00;100.00;93673.50;5085676;28;20240;-61
2023/07/17 01:47:25;;;;;;;1999.90;999.90;;;;;;;21.02;100.00;93670.22;5086122;28;20176;-62
2023/07/17 01:49:50;;;;;;;1999.90;999.90;;;;;;;20.96;100.00;93659.13;5085621;28;20162;-62
2023/07/17 01:52:16;;;;;;;1999.90;999.90;;;;;;;20.95;100.00;93660.41;5085176;28;20216;-61
2023/07/17 01:54:41;;;;;;;1999.90;999.90;;;;;;;20.97;100.00;93660.63;5085786;28;20212;-61
2023/07/17 01:57:06;;;;;;;1999.90;999.90;;;;;;;20.92;100.00;93652.31;5085857;28;20172;-62
2023/07/17 01:59:32;;;;;;;1999.90;999.90;;;;;;;20.87;100.00;93628.84;5085272;28;20224;-62
2023/07/17 02:01:57;;;;;;;1999.90;999.90;;;;;;;20.89;100.00;93609.69;5085321;28;20165;-61
2023/07/17 02:04:22;;;;;;;1999.90;999.90;;;;;;;20.92;100.00;93582.91;5085819;28;20219;-61
2023/07/17 02:06:48;;;;;;;1999.90;999.90;;;;;;;20.97;100.00;93557.94;5084868;28;20173;-61
2023/07/17 02:09:13;;;;;;;1999.90;999.90;;;;;;;20.97;100.00;93552.38;5085143;28;20173;-62
2023/07/17 02:11:38;;;;;;;1999.90;999.90;;;;;;;21.03;100.00;93532.91;5085676;28;20176;-62
2023/07/17 02:14:04;;;;;;;1999.90;999.90;;;;;;;21.12;100.00;93513.16;5085312;28;20165;-62
2023/07/17 02:16:30;;;;;;;1999.90;999.90;;;;;;;21.13;100.00;93495.22;5084613;28;20169;-62
2023/07/17 02:18:55;;;;;;;1999.90;999.90;;;;;;;21.14;100.00;93474.50;5084996;28;20209;-61
2023/07/17 02:21:20;;;;;;;1999.90;999.90;;;;;;;21.14;100.00;93466.94;5085382;28;20169;-62
2023/07/17 02:23:46;;;;;;;1999.90;999.90;;;;;;;21.17;100.00;93454.81;5084981;28;20236;-63
2023/07/17 02:26:11;;;;;;;1999.90;999.90;;;;;;;21.16;100.00;93447.72;5084793;28;20165;-62
2023/07/17 02:28:37;;;;;;;1999.90;999.90;;;;;;;21.18;100.00;93450.75;5084835;28;20173;-62
2023/07/17 02:31:02;;;;;;;1999.90;999.90;;;;;;;21.22;100.00;93454.00;5085143;28;20165;-62
2023/07/17 02:33:28;;;;;;;1999.90;999.90;;;;;;;21.25;100.00;93433.53;5084678;28;20171;-62
2023/07/17 02:35:53;;;;;;;1999.90;999.90;;;;;;;21.23;100.00;93438.84;5084713;28;20165;-61
2023/07/17 02:38:19;;;;;;;1999.90;999.90;;;;;;;21.29;100.00;93439.53;5084910;28;20165;-61
2023/07/17 02:40:44;;;;;;;1999.90;999.90;;;;;;;21.31;100.00;93434.19;5084787;28;20192;-61
2023/07/17 02:43:09;;;;;;;1999.90;999.90;;;;;;;21.28;100.00;93082.56;5084993;28;20295;-62
2023/07/17 02:45:36;;;;;;;1999.90;999.90;;;;;;;21.33;100.00;93084.50;5085045;28;20197;-62
2023/07/17 02:48:03;;;;;;;1999.90;999.90;;;;;;;21.35;100.00;93081.94;5084081;28;20185;-62
2023/07/17 02:50:29;;;;;;;1999.90;999.90;;;;;;;21.35;100.00;93079.16;5084455;28;20207;-62
2023/07/17 02:52:54;;;;;;;1999.90;999.90;;;;;;;21.30;100.00;93085.56;5084051;28;20220;-62
2023/07/17 02:55:19;;;;;;;1999.90;999.90;;;;;;;21.25;100.00;93105.84;5084304;28;20206;-63
2023/07/17 02:57:45;;;;;;;1999.90;999.90;;;;;;;21.17;100.00;93138.28;5084490;28;20169;-62
2023/07/17 03:00:12;;;;;;;1999.90;999.90;;;;;;;21.10;100.00;93166.63;5084148;28;20204;-62
2023/07/17 03:02:41;;;;;;;1999.90;999.90;;;;;;;21.02;100.00;93195.50;5084892;28;20169;-62
2023/07/17 03:05:10;;;;;;;1999.90;999.90;;;;;;;20.96;100.00;93226.13;5084152;28;20166;-63
2023/07/17 03:07:38;;;;;;;1999.90;999.90;;;;;;;20.95;100.00;93249.59;5084154;28;20180;-62
2023/07/17 03:10:04;;;;;;;1999.90;999.90;;;;;;;20.96;100.00;93255.88;5084541;28;20169;-63
2023/07/17 03:12:30;;;;;;;1999.90;999.90;;;;;;;20.92;100.00;93283.94;5084622;28;20179;-63
2023/07/17 03:14:55;;;;;;;1999.90;999.90;;;;;;;20.92;100.00;93270.06;5083951;28;20169;-65
2023/07/17 03:17:20;;;;;;;1999.90;999.90;;;;;;;20.95;100.00;93254.41;5084732;28;20177;-65
2023/07/17 03:19:46;;;;;;;1999.90;999.90;;;;;;;20.94;100.00;93264.00;5083874;28;20211;-65
2023/07/17 03:22:11;;;;;;;1999.90;999.90;;;;;;;20.92;100.00;93300.59;5083884;28;20201;-66
2023/07/17 03:24:36;;;;;;;1999.90;999.90;;;;;;;20.95;100.00;93338.44;5084337;28;20173;-65
2023/07/17 03:27:03;;;;;;;1999.90;999.90;;;;;;;20.98;100.00;93365.13;5083656;28;20169;-65
2023/07/17 03:29:28;;;;;;;1999.90;999.90;;;;;;;20.95;100.00;93393.94;5083851;28;20295;-67
2023/07/17 03:31:54;;;;;;;1999.90;999.90;;;;;;;20.87;100.00;93398.50;5083825;28;20233;-65
2023/07/17 03:34:19;;;;;;;1999.90;999.90;;;;;;;20.70;100.00;93433.22;5083843;28;20165;-62
2023/07/17 03:36:45;;;;;;;1999.90;999.90;;;;;;;20.55;100.00;93441.16;5083794;28;20169;-61
2023/07/17 03:39:10;;;;;;;1999.90;999.90;;;;;;;20.38;100.00;93438.47;5084013;28;20189;-63
2023/07/17 03:41:37;;;;;;;1999.90;999.90;;;;;;;20.12;100.00;93413.19;5083799;28;20211;-64
2023/07/17 03:44:02;;;;;;;1999.90;999.90;;;;;;;20.05;100.00;93372.13;5084256;28;20169;-65
2023/07/17 03:46:30;;;;;;;1999.90;999.90;;;;;;;19.95;100.00;93334.16;5083456;28;20196;-71
2023/07/17 03:48:55;;;;;;;1999.90;999.90;;;;;;;19.86;100.00;93268.72;5083688;28;20169;-69
2023/07/17 03:51:21;;;;;;;1999.90;999.90;;;;;;;19.73;100.00;93238.06;5083721;28;20169;-69
2023/07/17 03:53:47;;;;;;;1999.90;999.90;;;;;;;19.82;100.00;93195.44;5083413;28;20284;-68
2023/07/17 03:56:12;;;;;;;1999.90;999.90;;;;;;;19.80;100.00;93154.41;5083865;28;20180;-68
2023/07/17 03:58:37;;;;;;;1999.90;999.90;;;;;;;19.82;100.00;93113.09;5083876;28;20197;-65
2023/07/17 04:01:03;;;;;;;1999.90;999.90;;;;;;;19.84;100.00;93082.09;5083869;28;20188;-63
2023/07/17 04:03:28;;;;;;;1999.90;999.90;;;;;;;19.86;100.00;93052.59;5083745;28;20177;-65
2023/07/17 04:05:53;;;;;;;1999.90;999.90;;;;;;;19.91;100.00;93020.53;5083565;28;20178;-64
2023/07/17 04:08:19;;;;;;;1999.90;999.90;;;;;;;19.97;100.00;92974.91;5083633;28;20231;-64
2023/07/17 04:10:44;;;;;;;1999.90;999.90;;;;;;;19.95;100.00;92952.50;5084036;28;20182;-65
2023/07/17 04:13:09;;;;;;;1999.90;999.90;;;;;;;19.99;100.00;92930.78;5083367;28;20173;-65
2023/07/17 04:15:36;;;;;;;1999.90;999.90;;;;;;;20.00;100.00;92907.34;5083548;28;20205;-64
2023/07/17 04:18:02;;;;;;;1999.90;999.90;;;;;;;20.01;100.00;92908.09;5083717;28;20174;-64
2023/07/17 04:20:27;;;;;;;1999.90;999.90;;;;;;;20.02;100.00;92890.94;5083362;28;20240;-64
2023/07/17 04:22:52;;;;;;;1999.90;999.90;;;;;;;20.01;100.00;92880.38;5083451;28;20174;-65
2023/07/17 04:25:18;;;;;;;1999.90;999.90;;;;;;;19.99;100.00;92883.66;5083771;28;20232;-64
2023/07/17 04:27:43;;;;;;;1999.90;999.90;;;;;;;19.95;100.00;92894.31;5083878;28;20245;-63
2023/07/17 04:30:09;;;;;;;1999.90;999.90;;;;;;;19.94;100.00;92906.66;5083717;28;20170;-64
2023/07/17 04:32:35;;;;;;;1999.90;999.90;;;;;;;19.84;100.00;92911.06;5083868;28;20189;-63
2023/07/17 04:35:00;;;;;;;1999.90;999.90;;;;;;;19.86;100.00;92913.31;5082931;28;20175;-63
2023/07/17 04:37:25;;;;;;;1999.90;999.90;;;;;;;19.84;100.00;92924.19;5083152;28;20193;-63
2023/07/17 04:39:51;;;;;;;1999.90;999.90;;;;;;;19.86;100.00;92907.78;5085836;28;20273;-63
2023/07/17 04:42:16;;;;;;;1999.90;999.90;;;;;;;19.87;100.00;92898.94;5086867;28;20177;-62
2023/07/17 04:44:43;;;;;;;1999.90;999.90;;;;;;;19.81;100.00;92909.34;5086793;28;20173;-61
2023/07/17 04:47:09;;;;;;;1999.90;999.90;;;;;;;19.83;100.00;92909.56;5086333;28;20177;-63
2023/07/17 04:49:35;;;;;;;1999.90;999.90;;;;;;;19.87;100.00;92914.81;5086754;28;20189;-61
2023/07/17 04:52:00;;;;;;;1999.90;999.90;;;;;;;19.79;100.00;92914.66;5087328;28;20217;-61
2023/07/17 04:54:25;;;;;;;1999.90;999.90;;;;;;;19.78;100.00;92877.16;5086375;28;20173;-61
2023/07/17 04:56:51;;;;;;;1999.90;999.90;;;;;;;19.79;100.00;92903.59;5086824;28;20217;-61
2023/07/17 04:59:16;;;;;;;1999.90;999.90;;;;;;;19.77;100.00;92900.56;5086378;28;20209;-62
2023/07/17 05:01:42;;;;;;;1999.90;999.90;;;;;;;19.78;100.00;92913.19;5087045;28;20170;-62
2023/07/17 05:04:07;;;;;;;1999.90;999.90;;;;;;;19.81;100.00;92923.19;5086386;28;20168;-62
2023/07/17 05:06:32;;;;;;;1999.90;999.90;;;;;;;19.84;100.00;92926.97;5087120;28;20169;-61
2023/07/17 05:08:58;;;;;;;1999.90;999.90;;;;;;;19.90;100.00;92914.53;5086824;28;20169;-62
2023/07/17 05:11:23;;;;;;;1999.90;999.90;;;;;;;19.90;100.00;92892.38;5086272;28;20177;-63
2023/07/17 05:13:48;;;;;;;1999.90;999.90;;;;;;;19.87;100.00;92887.88;5086685;28;20181;-62
2023/07/17 05:16:14;;;;;;;1999.90;999.90;;;;;;;19.92;100.00;92878.72;5086728;28;20180;-63
2023/07/17 05:18:39;;;;;;;1999.90;999.90;;;;;;;19.90;100.00;92820.31;5086698;28;20173;-63
2023/07/17 05:21:05;;;;;;;1999.90;999.90;;;;;;;19.83;100.00;92823.69;5086243;28;20208;-62
2023/07/17 05:23:30;;;;;;;1999.90;999.90;;;;;;;19.81;100.00;92834.53;5086072;28;20173;-62
2023/07/17 05:25:58;;;;;;;1999.90;999.90;;;;;;;19.86;100.00;92830.97;5086044;28;20177;-62
2023/07/17 05:28:24;;;;;;;1999.90;999.90;;;;;;;19.92;100.00;92831.63;5086401;28;20203;-62
2023/07/17 05:30:54;;;;;;;1999.90;999.90;;;;;;;19.98;100.00;92771.34;5085887;28;20220;-62
2023/07/17 05:33:20;;;;;;;1999.90;999.90;;;;;;;19.99;100.00;92770.03;5086442;28;20215;-62
2023/07/17 05:35:45;;;;;;;1999.90;999.90;;;;;;;19.86;100.00;92792.19;5085948;28;20173;-62
2023/07/17 05:38:11;;;;;;;1999.90;999.90;;;;;;;19.89;100.00;92791.13;5085717;28;20178;-63
2023/07/17 05:40:39;;;;;;;1999.90;999.90;;;;;;;19.94;100.00;92798.59;5085611;28;20215;-63
2023/07/17 05:43:05;;;;;;;1999.90;999.90;;;;;;;19.95;100.00;92794.56;5086236;28;20173;-62
2023/07/17 05:45:30;;;;;;;1999.90;999.90;;;;;;;19.96;100.00;92818.19;5085520;28;20200;-62
2023/07/17 05:47:55;;;;;;;1999.90;999.90;;;;;;;20.10;100.00;92810.72;5085583;28;20173;-62
2023/07/17 05:50:21;;;;;;;1999.90;999.90;;;;;;;20.18;100.00;92812.34;5085561;28;20180;-62
2023/07/17 05:52:46;;;;;;;1999.90;999.90;;;;;;;20.31;100.00;92806.88;5085307;28;20237;-62
2023/07/17 05:55:11;;;;;;;1999.90;999.90;;;;;;;20.45;100.00;92815.97;5085713;28;20174;-63
2023/07/17 05:57:37;;;;;;;1999.90;999.90;;;;;;;20.39;100.00;92846.56;5085527;28;20174;-62
2023/07/17 06:00:03;;;;;;;1999.90;999.90;;;;;;;20.42;100.00;92875.25;5085133;28;20239;-63
2023/07/17 06:02:29;;;;;;;1999.90;999.90;;;;;;;20.48;100.00;92890.53;5085118;28;20177;-63
2023/07/17 06:04:54;;;;;;;1999.90;999.90;;;;;;;20.42;100.00;92925.91;5085336;28;20227;-63
2023/07/17 06:07:20;;;;;;;1999.90;999.90;;;;;;;20.28;100.00;92981.84;5085140;28;20173;-63
2023/07/17 06:09:45;;;;;;;1999.90;999.90;;;;;;;20.31;100.00;93041.75;5084978;28;20177;-63
2023/07/17 06:12:11;;;;;;;1999.90;999.90;;;;;;;20.37;100.00;93084.81;5084967;28;20257;-64
2023/07/17 06:14:36;;;;;;;1999.90;999.90;;;;;;;20.61;100.00;93106.94;5085004;28;20184;-63
2023/07/17 06:17:02;;;;;;;1999.90;999.90;;;;;;;20.95;100.00;93144.13;5085274;28;20173;-63
2023/07/17 06:19:28;;;;;;;1999.90;999.90;;;;;;;21.12;100.00;93268.84;5085306;28;20228;-64
2023/07/17 06:21:53;;;;;;;1999.90;999.90;;;;;;;21.25;100.00;93372.44;5085049;28;20177;-63
2023/07/17 06:24:19;;;;;;;1999.90;999.90;;;;;;;21.15;100.00;93512.88;5084803;28;20173;-63
2023/07/17 06:26:44;;;;;;;1999.90;999.90;;;;;;;20.96;100.00;93595.28;5084784;28;20177;-63
2023/07/17 06:29:10;;;;;;;1999.90;999.90;;;;;;;20.68;100.00;93675.13;5084687;28;20177;-64
2023/07/17 06:31:36;;;;;;;1999.90;999.90;;;;;;;20.65;100.00;93731.63;5085221;28;20173;-64
2023/07/17 06:34:02;;;;;;;1999.90;999.90;;;;;;;20.56;100.00;93773.53;5085233;28;20165;-64
2023/07/17 06:36:28;;;;;;;1999.90;999.90;;;;;;;20.44;100.00;93813.66;5085214;28;20173;-64
2023/07/17 06:38:53;;;;;;;1999.90;999.90;;;;;;;20.42;100.00;93813.38;5084352;28;20177;-64
2023/07/17 06:41:19;;;;;;;1999.90;999.90;;;;;;;20.36;100.00;93843.13;5084340;28;20207;-65
2023/07/17 06:43:44;;;;;;;1999.90;999.90;;;;;;;20.25;100.00;93851.44;5084414;28;20176;-65
2023/07/17 06:46:10;;;;;;;1999.90;999.90;;;;;;;20.18;100.00;93865.06;5084488;28;20256;-66
2023/07/17 06:48:36;;;;;;;1999.90;999.90;;;;;;;20.11;100.00;93866.31;5084244;28;20170;-65
2023/07/17 06:51:04;;;;;;;1999.90;999.90;;;;;;;20.09;100.00;93868.03;5084160;28;20177;-66
2023/07/17 06:53:30;;;;;;;1999.90;999.90;;;;;;;20.05;100.00;93851.66;5083697;28;20221;-66
2023/07/17 06:55:56;;;;;;;1999.90;999.90;;;;;;;19.98;100.00;93841.06;5084139;28;20169;-66
2023/07/17 06:58:22;;;;;;;1999.90;999.90;;;;;;;20.01;100.00;93850.38;5084059;28;20235;-66
2023/07/17 07:00:53;;;;;;;1999.90;999.90;;;;;;;20.06;100.00;93855.94;5084123;28;20247;-66
2023/07/17 07:03:18;;;;;;;1999.90;999.90;;;;;;;20.19;100.00;93833.28;5084469;28;20176;-66
2023/07/17 07:05:53;;;;;;;1999.90;999.90;;;;;;;20.33;100.00;93832.28;5083667;28;20169;-66
2023/07/17 07:08:18;;;;;;;1999.90;999.90;;;;;;;20.33;100.00;93849.69;5084020;28;20165;-66
2023/07/17 07:10:43;;;;;;;1999.90;999.90;;;;;;;20.45;100.00;93840.13;5083879;28;20204;-66
2023/07/17 07:13:08;;;;;;;1999.90;999.90;;;;;;;20.49;100.00;93843.38;5084169;28;20170;-66
2023/07/17 07:15:34;;;;;;;1999.90;999.90;;;;;;;20.56;100.00;93856.00;5083957;28;20165;-66
2023/07/17 07:17:59;;;;;;;1999.90;999.90;;;;;;;20.54;100.00;93864.06;5084462;28;20169;-66
2023/07/17 07:20:25;;;;;;;1999.90;999.90;;;;;;;20.58;100.00;93876.41;5083630;28;20216;-66
2023/07/17 07:22:50;;;;;;;1999.90;999.90;;;;;;;20.56;100.00;93884.50;5083820;28;20174;-66
2023/07/17 07:25:15;;;;;;;1999.90;999.90;;;;;;;20.72;100.00;93903.16;5084405;28;20198;-67
2023/07/17 07:27:41;;;;;;;1999.90;999.90;;;;;;;20.76;100.00;93958.41;5084463;28;20177;-66
2023/07/17 07:30:06;;;;;;;1999.90;999.90;;;;;;;20.83;100.00;94005.09;5083986;28;20184;-66
2023/07/17 07:32:32;;;;;;;1999.90;999.90;;;;;;;20.89;100.00;94030.84;5084204;28;20197;-67
2023/07/17 07:34:57;;;;;;;1999.90;999.90;;;;;;;20.94;100.00;94035.69;5083700;28;20172;-66
2023/07/17 07:37:22;;;;;;;1999.90;999.90;;;;;;;20.94;100.00;94047.53;5084261;28;20177;-67
2023/07/17 07:39:48;;;;;;;1999.90;999.90;;;;;;;21.02;100.00;94056.88;5084142;28;20295;-67
2023/07/17 07:42:13;;;;;;;1999.90;999.90;;;;;;;21.26;100.00;94071.03;5083752;28;20175;-67
2023/07/17 07:44:38;;;;;;;1999.90;999.90;;;;;;;21.67;100.00;94091.50;5083765;28;20180;-66
2023/07/17 07:47:05;;;;;;;1999.90;999.90;;;;;;;22.18;100.00;94141.00;5083780;28;20176;-66
2023/07/17 07:49:30;;;;;;;1999.90;999.90;;;;;;;23.33;100.00;94341.75;5084262;28;20166;-66
2023/07/17 07:51:55;;;;;;;1999.90;999.90;;;;;;;24.48;100.00;94449.31;5083532;28;20180;-66
2023/07/17 07:54:21;;;;;;;1999.90;999.90;;;;;;;25.57;100.00;94561.69;5083965;28;20192;-65
2023/07/17 07:56:46;;;;;;;1999.90;999.90;;;;;;;26.89;100.00;94837.84;5083418;28;20169;-66
2023/07/17 07:59:11;;;;;;;1999.90;999.90;;;;;;;27.89;100.00;95043.31;5083624;28;20275;-67
2023/07/17 08:01:37;;;;;;;1999.90;999.90;;;;;;;29.05;100.00;95696.78;5083585;28;20176;-67
2023/07/17 08:04:02;;;;;;;1999.90;999.90;;;;;;;29.93;100.00;95775.25;5083909;28;20172;-66
2023/07/17 08:06:27;;;;;;;1999.90;999.90;;;;;;;30.55;100.00;95810.97;5084196;28;20176;-66
2023/07/17 08:08:53;;;;;;;1999.90;999.90;;;;;;;31.13;100.00;95803.81;5083617;28;20181;-66
2023/07/17 08:11:21;;;;;;;1999.90;999.90;;;;;;;31.90;100.00;95807.88;5083761;28;20169;-66
2023/07/17 08:13:46;;;;;;;1999.90;999.90;;;;;;;32.13;100.00;95809.84;5084544;28;20236;-66
2023/07/17 08:16:11;;;;;;;1999.90;999.90;;;;;;;31.98;100.00;95801.06;5087228;28;20176;-66
2023/07/17 08:18:37;;;;;;;1999.90;999.90;;;;;;;31.51;100.00;95818.84;5087239;28;20173;-66
2023/07/17 08:21:02;;;;;;;1999.90;999.90;;;;;;;32.32;100.00;95809.88;5087154;28;20201;-66
2023/07/17 08:23:28;;;;;;;1999.90;999.90;;;;;;;33.06;100.00;95809.69;5087374;28;20180;-66
2023/07/17 08:25:53;;;;;;;1999.90;999.90;;;;;;;33.44;100.00;95808.25;5087634;28;20169;-66
2023/07/17 08:28:18;;;;;;;1999.90;999.90;;;;;;;33.78;100.00;95812.72;5087310;28;20311;-66
2023/07/17 08:30:44;;;;;;;1999.90;999.90;;;;;;;33.39;100.00;95811.97;5087351;28;20244;-66
2023/07/17 08:33:11;;;;;;;1999.90;999.90;;;;;;;34.33;100.00;95810.06;5087152;28;20174;-67
2023/07/17 08:35:36;;;;;;;1999.90;999.90;;;;;;;33.77;100.00;95799.88;5086995;28;20247;-66
2023/07/17 08:38:02;;;;;;;1999.90;999.90;;;;;;;33.53;100.00;95807.81;5087008;28;20181;-66
2023/07/17 08:40:27;;;;;;;1999.90;999.90;;;;;;;33.06;100.00;95804.03;5086772;28;20236;-67
2023/07/17 08:42:55;;;;;;;1999.90;999.90;;;;;;;31.44;100.00;95794.00;5086936;28;20170;-67
2023/07/17 08:45:22;;;;;;;1999.90;999.90;;;;;;;32.25;100.00;95811.22;5087231;28;20241;-67
2023/07/17 08:47:51;;;;;;;1999.90;999.90;;;;;;;32.16;100.00;95808.78;5086743;28;20173;-67
2023/07/17 08:50:17;;;;;;;1999.90;999.90;;;;;;;31.34;100.00;95819.03;5086713;28;20169;-68
2023/07/17 08:52:46;;;;;;;1999.90;999.90;;;;;;;30.83;100.00;95822.84;5086442;28;20209;-67
2023/07/17 08:55:11;;;;;;;1999.90;999.90;;;;;;;30.19;100.00;95817.91;5087014;28;20169;-69
2023/07/17 08:57:38;;;;;;;1999.90;999.90;;;;;;;30.09;100.00;95814.63;5086430;28;20173;-67
2023/07/17 09:00:04;;;;;;;1999.90;999.90;;;;;;;30.73;100.00;95804.69;5086370;28;20208;-67
2023/07/17 09:02:30;;;;;;;1999.90;999.90;;;;;;;32.00;100.00;95792.03;5086429;28;20208;-67
2023/07/17 09:04:55;;;;;;;1999.90;999.90;;;;;;;33.29;95.61;95805.91;5086494;28;20174;-67
2023/07/17 09:07:20;;;;;;;1999.90;999.90;;;;;;;33.42;85.98;95814.47;5086872;28;20176;-67
2023/07/17 09:09:46;;;;;;;1999.90;999.90;;;;;;;33.39;89.81;95821.22;5086345;28;20195;-67
2023/07/17 09:12:12;;;;;;;1999.90;999.90;;;;;;;33.00;93.32;95823.97;5086240;28;20170;-66
2023/07/17 09:14:38;;;;;;;1999.90;999.90;;;;;;;33.16;87.25;95824.97;5086734;28;20173;-66
2023/07/17 09:17:07;;;;;;;1999.90;999.90;;;;;;;33.68;87.45;95820.13;5086169;28;20193;-66
2023/07/17 09:19:34;;;;;;;1999.90;999.90;;;;;;;34.97;83.78;95816.78;5086100;28;20228;-67
2023/07/17 09:22:01;;;;;;;1999.90;999.90;;;;;;;35.05;78.19;95831.81;5086067;28;20193;-66
2023/07/17 09:24:27;;;;;;;1999.90;999.90;;;;;;;35.23;75.99;95839.34;5085965;28;20222;-67
2023/07/17 09:26:56;;;;;;;1999.90;999.90;;;;;;;35.88;74.77;95830.38;5085927;28;20169;-67
2023/07/17 09:29:23;;;;;;;1999.90;999.90;;;;;;;35.21;73.58;95808.66;5086291;28;20173;-67
2023/07/17 09:31:49;;;;;;;1999.90;999.90;;;;;;;35.08;82.79;95819.34;5085836;28;20195;-67
2023/07/17 09:34:15;;;;;;;1999.90;999.90;;;;;;;34.37;90.57;95804.81;5085885;28;20165;-68
2023/07/17 09:36:41;;;;;;;1999.90;999.90;;;;;;;34.71;84.07;95808.38;5086562;28;20169;-67
2023/07/17 09:39:07;;;;;;;1999.90;999.90;;;;;;;33.56;90.01;95807.50;5085672;28;20169;-67
2023/07/17 09:41:33;;;;;;;1999.90;999.90;;;;;;;33.07;95.75;95800.66;5085785;28;20170;-67
2023/07/17 09:44:05;;;;;;;1999.90;999.90;;;;;;;33.88;100.00;95800.94;5085711;28;20179;-67
2023/07/17 09:46:34;;;;;;;1999.90;999.90;;;;;;;33.27;94.80;95797.22;5086046;28;20169;-67
2023/07/17 09:49:01;;;;;;;1999.90;999.90;;;;;;;32.85;98.26;95803.88;5085657;28;20244;-67
2023/07/17 09:51:26;;;;;;;1999.90;999.90;;;;;;;32.85;97.06;95801.06;5085537;28;20180;-68
2023/07/17 09:53:52;;;;;;;1999.90;999.90;;;;;;;34.00;93.09;95805.84;5085137;28;20213;-68
2023/07/17 09:56:19;;;;;;;1999.90;999.90;;;;;;;33.14;86.89;95808.53;5085832;28;20195;-68
2023/07/17 09:58:50;;;;;;;1999.90;999.90;;;;;;;33.48;91.84;95806.63;5085788;28;20189;-67
2023/07/17 10:01:17;;;;;;;1999.90;999.90;;;;;;;33.69;94.88;95810.31;5085837;28;20202;-68
2023/07/17 10:03:48;;;;;;;1999.90;999.90;;;;;;;34.03;86.76;95803.97;5085836;28;20174;-67
2023/07/17 10:06:15;;;;;;;1999.90;999.90;;;;;;;33.02;91.91;95810.03;5085490;28;20176;-67
2023/07/17 10:08:46;;;;;;;1999.90;999.90;;;;;;;34.28;88.55;95791.03;5085315;28;20177;-67
2023/07/17 10:11:11;;;;;;;1999.90;999.90;;;;;;;35.00;78.46;95798.63;5085518;28;20177;-67
2023/07/17 10:13:37;;;;;;;1999.90;999.90;;;;;;;35.28;68.56;95796.56;5085104;28;20258;-67
2023/07/17 10:16:03;;;;;;;1999.90;999.90;;;;;;;35.42;70.73;95800.88;5085236;28;20276;-67
2023/07/17 10:18:30;;;;;;;1999.90;999.90;;;;;;;36.00;67.88;95797.44;5085442;28;20173;-67
2023/07/17 10:20:56;;;;;;;1999.90;999.90;;;;;;;35.63;68.19;95795.91;5085316;28;20208;-67
2023/07/17 10:23:26;;;;;;;1999.90;999.90;;;;;;;34.31;72.34;95796.38;5085468;28;20197;-67
2023/07/17 10:25:52;;;;;;;1999.90;999.90;;;;;;;33.95;75.01;95797.44;5084745;28;20200;-66
2023/07/17 10:28:35;;;;;;;1999.90;999.90;;;;;;;34.61;79.04;95790.28;5084841;28;20180;-68
2023/07/17 10:31:20;;;;;;;1999.90;999.90;;;;;;;35.19;71.71;95787.78;5085270;28;20197;-67
2023/07/17 10:33:49;;;;;;;1999.90;999.90;;;;;;;35.04;72.04;95782.00;5085159;28;20181;-67
2023/07/17 10:36:14;;;;;;;1999.90;999.90;;;;;;;35.10;72.15;95791.16;5084364;28;20173;-67
2023/07/17 10:38:42;;;;;;;1999.90;999.90;;;;;;;33.81;74.00;95786.13;5084586;28;20226;-67
2023/07/17 10:41:13;;;;;;;1999.90;999.90;;;;;;;33.70;80.97;95783.50;5084404;28;20242;-67